GMFK

Details ICAO GMFK (ERH)
Name MOULAY ALI CHERIF
Region Morocco
Timezone Africa/Casablanca (UTC+0.0)
Plans Departing 17
Arriving 27
Stats Elevation 3,428 ft / 1,045 m (AMSL)
Location 31.948300° -4.400950°
Runways 1
Magnetic Variation 0.818° W
Sunrise 2018-12-10 07:08:27 UTC / 2018-12-10 07:08:27 Local
Sunset 2018-12-10 17:15:04 UTC / 2018-12-10 17:15:04 Local
Advertisement - Login to hide

Runways

ID Width Length Bearing (true/mag) Surface Threshold Overrun Markings Lighting
13 148 ft / 45 m 10,576 ft / 3,224 m 125.08° / 125.90° ASPHALT 0 ft / 0 m 0 ft / 0 m APP EDGE THRESHOLD
31 148 ft / 45 m 10,576 ft / 3,224 m 305.10° / 305.91° ASPHALT 0 ft / 0 m 0 ft / 0 m APP EDGE THRESHOLD

Map

Weather


0- 5 10 15 20 25 30 35+ Temperature / °C

Clouds and Precipitation
Forecast for 2018-12-10 00:00 UTC. Updated 3 hours ago

Ground ~20,000 ft ~40,000 ft Winds

METAR

GMFK 100000Z 03003KT CAVOK 09/M02 Q1031 NOSIG

TAF

Not found

Frequencies

Tower 122.70 MHz ERRACHIDIA TWR
Warning: Do not use this data for real-world aviation or navigation. No guarantee of current accuracy is given.